Time;durP1;ratioP1;P1;durP2;ratioP2;P2;SDS_P1;SDS_P2;PMS_P1;PMS_P2;Temp;Humidity;BMP_temperature;BMP_pressure;BME280_temperature;BME280_humidity;BME280_pressure;Samples;Min_cycle;Max_cycle;Signal;HPM_P1;HPM_P2
2022/03/15 00:01:57;;;;;;;;;32.00;29.00;;;;;;;;5141303;27;12243;-78
2022/03/15 00:04:23;;;;;;;;;30.00;29.00;;;;;;;;5141157;27;9763;-79
2022/03/15 00:06:48;;;;;;;;;17.00;17.00;;;;;;;;5141841;27;8792;-79
2022/03/15 00:09:14;;;;;;;;;35.67;29.67;;;;;;;;5140965;27;10302;-79
2022/03/15 00:11:40;;;;;;;;;32.33;26.00;;;;;;;;5141010;27;13407;-79
2022/03/15 00:14:06;;;;;;;;;31.00;29.33;;;;;;;;5141224;27;11694;-79
2022/03/15 00:16:31;;;;;;;;;27.33;26.00;;;;;;;;5140361;27;11494;-80
2022/03/15 00:18:57;;;;;;;;;29.67;28.67;;;;;;;;5140950;27;13488;-78
2022/03/15 00:21:25;;;;;;;;;33.00;29.33;;;;;;;;5141577;27;11643;-79
2022/03/15 00:23:50;;;;;;;;;27.00;26.33;;;;;;;;5140979;27;13594;-80
2022/03/15 00:26:15;;;;;;;;;35.00;32.00;;;;;;;;5141036;27;10418;-79
2022/03/15 00:28:41;;;;;;;;;30.67;25.67;;;;;;;;5140792;27;13348;-79
2022/03/15 00:31:06;;;;;;;;;30.00;27.67;;;;;;;;5140896;27;12198;-79
2022/03/15 00:33:32;;;;;;;;;27.67;23.33;;;;;;;;5142154;27;9514;-79
2022/03/15 00:35:59;;;;;;;;;30.00;28.67;;;;;;;;5143956;27;13495;-79
2022/03/15 00:38:25;;;;;;;;;17.33;15.33;;;;;;;;5144064;27;13550;-79
2022/03/15 00:40:50;;;;;;;;;13.00;8.00;;;;;;;;5140620;27;13935;-79
2022/03/15 00:43:15;;;;;;;;;24.67;21.33;;;;;;;;5122148;27;22684;-78
2022/03/15 00:45:40;;;;;;;;;30.67;27.33;;;;;;;;5140594;27;22938;-80
2022/03/15 00:48:07;;;;;;;;;31.00;26.67;;;;;;;;5140864;27;11954;-80
2022/03/15 00:50:36;;;;;;;;;31.00;26.00;;;;;;;;5141208;27;11699;-80
2022/03/15 00:53:03;;;;;;;;;27.00;25.67;;;;;;;;5140689;27;9737;-80
2022/03/15 00:55:28;;;;;;;;;25.33;22.33;;;;;;;;5140757;27;13462;-80
2022/03/15 00:57:53;;;;;;;;;35.33;30.33;;;;;;;;5140860;27;11586;-80
2022/03/15 01:00:20;;;;;;;;;29.00;24.33;;;;;;;;5140858;27;10350;-80
2022/03/15 01:02:46;;;;;;;;;28.67;25.33;;;;;;;;5140540;27;13383;-79
2022/03/15 01:05:11;;;;;;;;;29.00;26.67;;;;;;;;5140409;27;10579;-79
2022/03/15 01:07:37;;;;;;;;;30.00;29.67;;;;;;;;5121311;27;13479;-79
2022/03/15 01:10:04;;;;;;;;;22.33;20.67;;;;;;;;5122454;27;12448;-80
2022/03/15 01:12:31;;;;;;;;;36.33;31.67;;;;;;;;5121533;27;12730;-79
2022/03/15 01:14:56;;;;;;;;;31.67;26.00;;;;;;;;5140536;27;10466;-79
2022/03/15 01:17:21;;;;;;;;;27.00;25.33;;;;;;;;5139921;27;12192;-80
2022/03/15 01:19:46;;;;;;;;;26.00;24.00;;;;;;;;5139255;27;13371;-77
2022/03/15 01:22:12;;;;;;;;;25.33;24.00;;;;;;;;5140154;27;11389;-78
2022/03/15 01:24:37;;;;;;;;;32.00;30.33;;;;;;;;5140003;27;9047;-79
2022/03/15 01:27:03;;;;;;;;;30.00;25.67;;;;;;;;5140322;27;13286;-79
2022/03/15 01:29:31;;;;;;;;;33.00;29.00;;;;;;;;5140038;27;12509;-78
2022/03/15 01:31:59;;;;;;;;;32.33;28.67;;;;;;;;5139146;27;11503;-79
2022/03/15 23:18:03;;;;;;;;;21.00;19.00;;;;;;;;5199287;27;11474;-74
2022/03/15 23:23:12;;;;;;;;;22.25;21.00;;;;;;;;5192924;27;12220;-74
2022/03/15 23:25:38;;;;;;;;;25.00;23.75;;;;;;;;5199181;27;11652;-74
2022/03/15 23:28:03;;;;;;;;;28.25;23.00;;;;;;;;5194807;27;11441;-73
2022/03/15 23:30:29;;;;;;;;;25.25;24.00;;;;;;;;5177734;27;12440;-74
2022/03/15 23:32:55;;;;;;;;;12.25;11.25;;;;;;;;5178259;27;8908;-74
2022/03/15 23:35:21;;;;;;;;;26.50;23.00;;;;;;;;5178388;27;13564;-74
2022/03/15 23:37:47;;;;;;;;;22.00;21.25;;;;;;;;5178698;27;13949;-73
2022/03/15 23:40:14;;;;;;;;;24.50;23.00;;;;;;;;5197378;27;11836;-74
2022/03/15 23:42:39;;;;;;;;;18.75;18.25;;;;;;;;5192144;27;11466;-73
2022/03/15 23:45:06;;;;;;;;;20.25;19.00;;;;;;;;5182337;27;13329;-73
2022/03/15 23:47:33;;;;;;;;;18.75;15.00;;;;;;;;5184344;27;13673;-74
2022/03/15 23:49:58;;;;;;;;;29.50;29.50;;;;;;;;5185001;27;11649;-74
2022/03/15 23:52:23;;;;;;;;;32.50;29.50;;;;;;;;5184380;27;13464;-74
2022/03/15 23:54:49;;;;;;;;;31.75;29.00;;;;;;;;5185040;27;8857;-74
2022/03/15 23:57:14;;;;;;;;;28.00;26.00;;;;;;;;5184314;27;11900;-73
2022/03/15 23:59:39;;;;;;;;;26.00;26.00;;;;;;;;5184636;27;12362;-74
